Página principal
METAR-TAF:

METAR-TAF

Aeroportos :

Bahrein, Bahrein

Aeroporto Internacional do Bahrain

latitude: 26-16N, longitude: 050-39E, altura: 2 m

Observação actual do tempo

O boletim foi feito há 26 minutos, às 23:30 UTC
Vento 3 kt de oeste
Temperatura 35°C
Humidade 63%
Pressão 998 hPa
Visibilidade: 8000 m
Céu limpo

METAR: OBBI 182330Z 27003KT 8000 SKC 35/27 Q0998 NOSIG

Hora: 02:56 (23:56 UTC)

Previsão

O boletim foi feito há 56 minutos, às 23:00 UTC
Previsão válida de 19 às 00 UTC a 20 às 06 UTC
Vento 5 kt com direcção variável
Visibilidade: 7000 m
Tornando-se
de 19 às 07 UTC a 19 às 09 UTC
Vento 10 kt de norte
Tornando-se
de 19 às 16 UTC a 19 às 18 UTC
Vento 5 kt com direcção variável
Temporariamente
de 20 às 01 UTC a 20 às 06 UTC
Visibilidade: 4000 m
bruma

TAF: OBBI 182300Z 1900/2006 VRB05KT 7000 NSC BECMG 1907/1909 01010KT BECMG 1916/1918 VRB05KT TEMPO 2001/2006 4000 HZ

Observações e previsões do tempo de mais de 4000 aeroportos (mensagens METAR e TAF).

As estações disponíveis são os pontos amarelos e vermelhos sobre o mapa.

Mova o rato sobre o mapa para ver o nome da estação.

Depois clique no ponto para visualizar as observações e previsões meteorológicas.

Para alterar o mapa : clique nos botões verdes com uma cruz preta para aumentar o zoom; no botão verde com uma pitada de zoom; ou nas setas verdes para mapas adjacentes.


METAR-TAF: